Airport Name : Loreto Intl

Other Name : Loreto Intl

ICAO : MMLT

IATA : LTO

FAA :

Latitude : 25.989194

Longitude : -111.348361

Country : Mexico

Local Date and Time : 29 Nov 2020 09:02

 

TAF (Terminal Aerodrome Forecast)

 

METAR (METeorological Aerodrome Report)

MMLT 291540Z 30010KT 10SM SKC 20/09 A3000

MMLT 291440Z 30008KT 10SM SKC 19/09 A3000 RMK SLP159

MMLT 291340Z 34008KT 10SM SKC 18/09 A2997 RMK RTS

To Charter a Jet Click here.